Vassar, Michigan
Current Conditions -  °F | °C
As of 8:35 AM on Tuesday 21 Oct 2014 (Local Time) from KCFS Reporting Station
Overcast Overcast  
Wind Chill: 40°   Ceiling: 2200
Heat Index: 46°   Visibility: 10mi
Dew Point: 40°   Wind: 12mph
Humidity: 83%   Direction: 10°N
Pressure: 30"   Gusts: 18mph
Location:  43.37°N, 83.58°W
Report Text: KCFS 211235Z AUTO 01010G16KT 10SM OVC022 08/05 A3000 RMK AO2 T00750047
Loading
Personal Weather Stations






























Interactive Weather Map
Tropical Storm Tracking
New forecast layout! Learn more

10-Day Weather Forecast

Advertisements
Track Severe Weather on mobile